WFDK1: Walnut River, Winfield, KS

Data processed at Wed Jun 19 2019 23:50


All information presented herein is the property of the government of the United States of America and may be revised or deleted at any time without prior notice.
Dissemination of this information without the expressed written consent of the Public Affairs Office, Tulsa District U.S. Army Corps of Engineers is strictly prohibited.
These data are gathered electronically and, as presented, have not undergone any form of quality control. These data are not guaranteed to be valid or correct.
Go to home page.
Go to station list.
Go to home page.

Upstream stations:

Downstream station:
Previous Day
Next Day
Current Day
    
SHEF ID:       WFDK1     WALNUT R AT WINFIELD, KS
STATION TYPE:  
Regulating: Stage =    18.00, Flow =    17822

               PRECIP     STAGE  STAGE(2)  RIV-FLOW  BAT-LOAD
                   in        ft        ft       cfs      volt
              Ccp-Rev   Ccp-Rev   Ccp-Rev   Ccp-Rev   Ccp-Rev
(US/Central)
06/19 00:00      0.00      8.03      ----      5194     12.65
06/19 01:00      0.00      8.14      ----      5310     12.57
06/19 02:00      0.00      8.16      ----      5331     12.57
06/19 03:00      0.04      8.22      ----      5394     12.57
06/19 04:00      0.10      8.44      ----      5628     12.57
06/19 05:00      0.05      9.14      ----      6389     12.57
06/19 06:00      0.00     10.17      ----      7554     12.49
06/19 07:00      0.01     11.30      ----      8888     12.49
06/19 08:00      0.00     12.51      ----     10378     12.57
06/19 09:00      0.00     13.51      ----     11654     12.57
06/19 10:00      0.00     14.41      ----     12834     12.73
06/19 11:00      0.00     15.25      ----     13962     12.97
06/19 12:00      0.00     15.90      ----     14852     13.37
06/19 13:00      0.00     16.45      ----     15616     13.13
06/19 14:00      0.00     16.81      ----     16122     13.53
06/19 15:00      0.00     17.09      ----     16518     13.29
06/19 16:00      0.00     17.26      ----     16760     13.13
06/19 17:00      0.00     17.40      ----     16959     13.05
06/19 18:00      0.00     17.47      ----     17059     12.73
06/19 19:00      0.00     17.47      ----     17059     12.65
06/19 20:00      0.00     17.69      ----     17375     12.65
06/19 21:00      0.00     17.75      ----     17461     12.65
06/19 22:00      0.00     17.85      ----     17606     12.57
06/19 23:00      0.00     17.99      ----     17808     12.57